sensor_id;sensor_type;location;lat;lon;timestamp;temperature;humidity
24262;DHT22;12385;51.412;5.540;2023-02-15T00:01:07;3.70;99.90
24262;DHT22;12385;51.412;5.540;2023-02-15T00:03:33;3.60;99.90
24262;DHT22;12385;51.412;5.540;2023-02-15T00:05:58;3.60;99.90
24262;DHT22;12385;51.412;5.540;2023-02-15T00:08:24;3.60;99.90
24262;DHT22;12385;51.412;5.540;2023-02-15T00:10:49;3.50;99.90
24262;DHT22;12385;51.412;5.540;2023-02-15T00:13:15;3.60;99.90
24262;DHT22;12385;51.412;5.540;2023-02-15T00:15:40;3.60;99.90
24262;DHT22;12385;51.412;5.540;2023-02-15T00:18:06;3.60;99.90
24262;DHT22;12385;51.412;5.540;2023-02-15T00:20:31;3.50;99.90
24262;DHT22;12385;51.412;5.540;2023-02-15T00:22:57;3.50;99.90
24262;DHT22;12385;51.412;5.540;2023-02-15T00:25:22;3.40;99.90
24262;DHT22;12385;51.412;5.540;2023-02-15T00:27:48;3.40;99.90
24262;DHT22;12385;51.412;5.540;2023-02-15T00:30:13;3.40;99.90
24262;DHT22;12385;51.412;5.540;2023-02-15T00:32:39;3.30;99.90
24262;DHT22;12385;51.412;5.540;2023-02-15T00:35:04;3.30;99.90
24262;DHT22;12385;51.412;5.540;2023-02-15T00:37:30;3.30;99.90
24262;DHT22;12385;51.412;5.540;2023-02-15T00:39:55;3.30;99.90
24262;DHT22;12385;51.412;5.540;2023-02-15T00:42:21;3.30;99.90
24262;DHT22;12385;51.412;5.540;2023-02-15T00:44:46;3.30;99.90
24262;DHT22;12385;51.412;5.540;2023-02-15T00:47:12;3.30;99.90
24262;DHT22;12385;51.412;5.540;2023-02-15T00:49:37;3.30;99.90
24262;DHT22;12385;51.412;5.540;2023-02-15T00:52:03;3.30;99.90
24262;DHT22;12385;51.412;5.540;2023-02-15T00:54:28;3.30;99.90
24262;DHT22;12385;51.412;5.540;2023-02-15T00:56:54;3.20;99.90
24262;DHT22;12385;51.412;5.540;2023-02-15T00:59:19;3.20;99.90
24262;DHT22;12385;51.412;5.540;2023-02-15T01:01:45;3.10;99.90
24262;DHT22;12385;51.412;5.540;2023-02-15T01:04:10;3.10;99.90
24262;DHT22;12385;51.412;5.540;2023-02-15T01:06:36;3.10;99.90
24262;DHT22;12385;51.412;5.540;2023-02-15T01:09:01;3.10;99.90
24262;DHT22;12385;51.412;5.540;2023-02-15T01:11:27;3.10;99.90
24262;DHT22;12385;51.412;5.540;2023-02-15T01:13:54;3.00;99.90
24262;DHT22;12385;51.412;5.540;2023-02-15T01:16:20;3.00;99.90
24262;DHT22;12385;51.412;5.540;2023-02-15T01:18:45;3.00;99.90
24262;DHT22;12385;51.412;5.540;2023-02-15T01:21:15;3.00;99.90
24262;DHT22;12385;51.412;5.540;2023-02-15T01:23:41;3.00;99.90
24262;DHT22;12385;51.412;5.540;2023-02-15T01:26:07;3.00;99.90
24262;DHT22;12385;51.412;5.540;2023-02-15T01:28:33;3.00;99.90
24262;DHT22;12385;51.412;5.540;2023-02-15T01:30:59;3.00;99.90
24262;DHT22;12385;51.412;5.540;2023-02-15T01:33:24;3.00;99.90
24262;DHT22;12385;51.412;5.540;2023-02-15T01:35:55;3.00;99.90
24262;DHT22;12385;51.412;5.540;2023-02-15T01:38:21;3.00;99.90
24262;DHT22;12385;51.412;5.540;2023-02-15T01:40:46;3.00;99.90
24262;DHT22;12385;51.412;5.540;2023-02-15T01:43:12;3.00;99.90
24262;DHT22;12385;51.412;5.540;2023-02-15T01:45:38;3.00;99.90
24262;DHT22;12385;51.412;5.540;2023-02-15T01:48:08;2.90;99.90
24262;DHT22;12385;51.412;5.540;2023-02-15T01:50:45;2.90;99.90
24262;DHT22;12385;51.412;5.540;2023-02-15T01:53:18;2.90;99.90
24262;DHT22;12385;51.412;5.540;2023-02-15T01:55:50;2.90;99.90
24262;DHT22;12385;51.412;5.540;2023-02-15T01:58:17;2.90;99.90
24262;DHT22;12385;51.412;5.540;2023-02-15T02:00:43;2.90;99.90
24262;DHT22;12385;51.412;5.540;2023-02-15T02:03:09;2.80;99.90
24262;DHT22;12385;51.412;5.540;2023-02-15T02:05:35;2.80;99.90
24262;DHT22;12385;51.412;5.540;2023-02-15T02:08:01;2.80;99.90
24262;DHT22;12385;51.412;5.540;2023-02-15T02:10:27;2.70;99.90
24262;DHT22;12385;51.412;5.540;2023-02-15T02:13:03;2.70;99.90
24262;DHT22;12385;51.412;5.540;2023-02-15T02:15:37;2.70;99.90
24262;DHT22;12385;51.412;5.540;2023-02-15T02:18:32;2.70;99.90
24262;DHT22;12385;51.412;5.540;2023-02-15T02:31:25;2.60;99.90
24262;DHT22;12385;51.412;5.540;2023-02-15T02:38:55;2.60;99.90
24262;DHT22;12385;51.412;5.540;2023-02-15T02:41:36;2.50;99.90
24262;DHT22;12385;51.412;5.540;2023-02-15T02:44:19;2.50;99.90
24262;DHT22;12385;51.412;5.540;2023-02-15T02:46:54;2.50;99.90
24262;DHT22;12385;51.412;5.540;2023-02-15T02:49:29;2.50;99.90
24262;DHT22;12385;51.412;5.540;2023-02-15T02:52:01;2.50;99.90
24262;DHT22;12385;51.412;5.540;2023-02-15T02:54:27;2.50;99.90
24262;DHT22;12385;51.412;5.540;2023-02-15T02:56:53;2.50;99.90
24262;DHT22;12385;51.412;5.540;2023-02-15T02:59:26;2.50;99.90
24262;DHT22;12385;51.412;5.540;2023-02-15T03:01:57;2.40;99.90
24262;DHT22;12385;51.412;5.540;2023-02-15T03:04:31;2.40;99.90
24262;DHT22;12385;51.412;5.540;2023-02-15T03:07:01;2.40;99.90
24262;DHT22;12385;51.412;5.540;2023-02-15T03:09:29;2.30;99.90
24262;DHT22;12385;51.412;5.540;2023-02-15T03:12:12;2.30;99.90
24262;DHT22;12385;51.412;5.540;2023-02-15T03:14:39;2.20;99.90
24262;DHT22;12385;51.412;5.540;2023-02-15T03:17:05;2.30;99.90
24262;DHT22;12385;51.412;5.540;2023-02-15T03:19:32;2.20;99.90
24262;DHT22;12385;51.412;5.540;2023-02-15T03:27:12;2.10;99.90
24262;DHT22;12385;51.412;5.540;2023-02-15T03:29:42;2.10;99.90
24262;DHT22;12385;51.412;5.540;2023-02-15T03:32:09;2.10;99.90
24262;DHT22;12385;51.412;5.540;2023-02-15T03:34:36;2.00;99.90
24262;DHT22;12385;51.412;5.540;2023-02-15T03:39:32;2.00;99.90
24262;DHT22;12385;51.412;5.540;2023-02-15T03:44:41;2.00;99.90
24262;DHT22;12385;51.412;5.540;2023-02-15T03:47:11;2.00;99.90
24262;DHT22;12385;51.412;5.540;2023-02-15T03:49:44;1.90;99.90
24262;DHT22;12385;51.412;5.540;2023-02-15T03:52:11;1.90;99.90
24262;DHT22;12385;51.412;5.540;2023-02-15T03:54:38;1.90;99.90
24262;DHT22;12385;51.412;5.540;2023-02-15T03:57:09;1.90;99.90
24262;DHT22;12385;51.412;5.540;2023-02-15T03:59:54;1.90;99.90
24262;DHT22;12385;51.412;5.540;2023-02-15T04:02:40;1.90;99.90
24262;DHT22;12385;51.412;5.540;2023-02-15T04:05:08;1.90;99.90
24262;DHT22;12385;51.412;5.540;2023-02-15T04:07:33;1.90;99.90
24262;DHT22;12385;51.412;5.540;2023-02-15T04:10:00;1.80;99.90
24262;DHT22;12385;51.412;5.540;2023-02-15T04:12:44;1.80;99.90
24262;DHT22;12385;51.412;5.540;2023-02-15T04:15:13;1.80;99.90
24262;DHT22;12385;51.412;5.540;2023-02-15T04:17:57;1.80;99.90
24262;DHT22;12385;51.412;5.540;2023-02-15T04:20:22;1.70;99.90
24262;DHT22;12385;51.412;5.540;2023-02-15T04:23:06;1.70;99.90
24262;DHT22;12385;51.412;5.540;2023-02-15T04:25:50;1.70;99.90
24262;DHT22;12385;51.412;5.540;2023-02-15T04:28:16;1.70;99.90
24262;DHT22;12385;51.412;5.540;2023-02-15T04:30:41;1.70;99.90
24262;DHT22;12385;51.412;5.540;2023-02-15T04:33:07;1.70;99.90
24262;DHT22;12385;51.412;5.540;2023-02-15T04:35:32;1.60;99.90
24262;DHT22;12385;51.412;5.540;2023-02-15T04:37:58;1.60;99.90
24262;DHT22;12385;51.412;5.540;2023-02-15T04:40:24;1.60;99.90
24262;DHT22;12385;51.412;5.540;2023-02-15T04:42:49;1.60;99.90
24262;DHT22;12385;51.412;5.540;2023-02-15T04:45:15;1.60;99.90
24262;DHT22;12385;51.412;5.540;2023-02-15T04:47:41;1.50;99.90
24262;DHT22;12385;51.412;5.540;2023-02-15T04:50:06;1.50;99.90
24262;DHT22;12385;51.412;5.540;2023-02-15T04:52:32;1.50;99.90
24262;DHT22;12385;51.412;5.540;2023-02-15T04:54:57;1.50;99.90
24262;DHT22;12385;51.412;5.540;2023-02-15T04:57:23;1.50;99.90
24262;DHT22;12385;51.412;5.540;2023-02-15T04:59:49;1.50;99.90
24262;DHT22;12385;51.412;5.540;2023-02-15T05:02:14;1.50;99.90
24262;DHT22;12385;51.412;5.540;2023-02-15T05:04:40;1.50;99.90
24262;DHT22;12385;51.412;5.540;2023-02-15T05:07:05;1.50;99.90
24262;DHT22;12385;51.412;5.540;2023-02-15T05:09:31;1.50;99.90
24262;DHT22;12385;51.412;5.540;2023-02-15T05:11:56;1.40;99.90
24262;DHT22;12385;51.412;5.540;2023-02-15T05:14:22;1.40;99.90
24262;DHT22;12385;51.412;5.540;2023-02-15T05:16:48;1.40;99.90
24262;DHT22;12385;51.412;5.540;2023-02-15T05:19:13;1.30;99.90
24262;DHT22;12385;51.412;5.540;2023-02-15T05:21:39;1.40;99.90
24262;DHT22;12385;51.412;5.540;2023-02-15T05:24:04;1.30;99.90
24262;DHT22;12385;51.412;5.540;2023-02-15T05:26:50;1.30;99.90
24262;DHT22;12385;51.412;5.540;2023-02-15T05:29:34;1.30;99.90
24262;DHT22;12385;51.412;5.540;2023-02-15T05:32:00;1.20;99.90
24262;DHT22;12385;51.412;5.540;2023-02-15T05:34:25;1.20;99.90
24262;DHT22;12385;51.412;5.540;2023-02-15T05:36:50;1.30;99.90
24262;DHT22;12385;51.412;5.540;2023-02-15T05:39:16;1.20;99.90
24262;DHT22;12385;51.412;5.540;2023-02-15T05:41:42;1.20;99.90
24262;DHT22;12385;51.412;5.540;2023-02-15T05:44:07;1.20;99.90
24262;DHT22;12385;51.412;5.540;2023-02-15T05:46:33;1.20;99.90
24262;DHT22;12385;51.412;5.540;2023-02-15T05:48:58;1.20;99.90
24262;DHT22;12385;51.412;5.540;2023-02-15T05:51:23;1.20;99.90
24262;DHT22;12385;51.412;5.540;2023-02-15T05:53:49;1.20;99.90
24262;DHT22;12385;51.412;5.540;2023-02-15T05:56:14;1.20;99.90
24262;DHT22;12385;51.412;5.540;2023-02-15T05:58:40;1.20;99.90
24262;DHT22;12385;51.412;5.540;2023-02-15T06:01:10;1.20;99.90
24262;DHT22;12385;51.412;5.540;2023-02-15T06:03:35;1.20;99.90
24262;DHT22;12385;51.412;5.540;2023-02-15T06:06:01;1.20;99.90
24262;DHT22;12385;51.412;5.540;2023-02-15T06:08:28;1.20;99.90
24262;DHT22;12385;51.412;5.540;2023-02-15T06:10:54;1.20;99.90
24262;DHT22;12385;51.412;5.540;2023-02-15T06:13:19;1.20;99.90
24262;DHT22;12385;51.412;5.540;2023-02-15T06:15:45;1.10;99.90
24262;DHT22;12385;51.412;5.540;2023-02-15T06:18:10;1.10;99.90
24262;DHT22;12385;51.412;5.540;2023-02-15T06:20:36;1.10;99.90
24262;DHT22;12385;51.412;5.540;2023-02-15T06:23:01;1.10;99.90
24262;DHT22;12385;51.412;5.540;2023-02-15T06:25:27;1.10;99.90
24262;DHT22;12385;51.412;5.540;2023-02-15T06:27:52;1.00;99.90
24262;DHT22;12385;51.412;5.540;2023-02-15T06:30:18;1.00;99.90
24262;DHT22;12385;51.412;5.540;2023-02-15T06:32:43;1.00;99.90
24262;DHT22;12385;51.412;5.540;2023-02-15T06:35:09;1.00;99.90
24262;DHT22;12385;51.412;5.540;2023-02-15T06:37:34;1.00;99.90
24262;DHT22;12385;51.412;5.540;2023-02-15T06:40:00;1.00;99.90
24262;DHT22;12385;51.412;5.540;2023-02-15T06:42:25;1.00;99.90
24262;DHT22;12385;51.412;5.540;2023-02-15T06:44:53;0.90;99.90
24262;DHT22;12385;51.412;5.540;2023-02-15T06:47:19;1.00;99.90
24262;DHT22;12385;51.412;5.540;2023-02-15T06:49:44;1.00;99.90
24262;DHT22;12385;51.412;5.540;2023-02-15T06:52:10;1.00;99.90
24262;DHT22;12385;51.412;5.540;2023-02-15T06:54:35;0.90;99.90
24262;DHT22;12385;51.412;5.540;2023-02-15T06:57:01;1.00;99.90
24262;DHT22;12385;51.412;5.540;2023-02-15T06:59:26;0.90;99.90
24262;DHT22;12385;51.412;5.540;2023-02-15T07:01:52;1.00;99.90
24262;DHT22;12385;51.412;5.540;2023-02-15T07:04:17;0.90;99.90
24262;DHT22;12385;51.412;5.540;2023-02-15T07:06:43;0.90;99.90
24262;DHT22;12385;51.412;5.540;2023-02-15T07:09:09;1.00;99.90
24262;DHT22;12385;51.412;5.540;2023-02-15T07:11:34;1.00;99.90
24262;DHT22;12385;51.412;5.540;2023-02-15T07:14:19;0.90;99.90
24262;DHT22;12385;51.412;5.540;2023-02-15T07:16:44;1.00;99.90
24262;DHT22;12385;51.412;5.540;2023-02-15T07:19:10;0.90;99.90
24262;DHT22;12385;51.412;5.540;2023-02-15T07:21:35;1.00;99.90
24262;DHT22;12385;51.412;5.540;2023-02-15T07:24:01;1.00;99.90
24262;DHT22;12385;51.412;5.540;2023-02-15T07:26:26;1.00;99.90
24262;DHT22;12385;51.412;5.540;2023-02-15T07:28:52;1.10;99.90
24262;DHT22;12385;51.412;5.540;2023-02-15T07:31:17;1.10;99.90
24262;DHT22;12385;51.412;5.540;2023-02-15T07:33:43;1.10;99.90
24262;DHT22;12385;51.412;5.540;2023-02-15T07:36:09;1.20;99.90
24262;DHT22;12385;51.412;5.540;2023-02-15T07:38:37;1.20;99.90
24262;DHT22;12385;51.412;5.540;2023-02-15T07:41:04;1.30;99.90
24262;DHT22;12385;51.412;5.540;2023-02-15T07:43:32;1.30;99.90
24262;DHT22;12385;51.412;5.540;2023-02-15T07:45:59;1.40;99.90
24262;DHT22;12385;51.412;5.540;2023-02-15T07:48:25;1.40;99.90
24262;DHT22;12385;51.412;5.540;2023-02-15T07:50:50;1.40;99.90
24262;DHT22;12385;51.412;5.540;2023-02-15T07:53:15;1.40;99.90
24262;DHT22;12385;51.412;5.540;2023-02-15T07:55:41;1.50;99.90
24262;DHT22;12385;51.412;5.540;2023-02-15T07:58:06;1.50;99.90
24262;DHT22;12385;51.412;5.540;2023-02-15T08:00:32;1.60;99.90
24262;DHT22;12385;51.412;5.540;2023-02-15T08:03:17;1.60;99.90
24262;DHT22;12385;51.412;5.540;2023-02-15T08:05:44;1.60;99.90
24262;DHT22;12385;51.412;5.540;2023-02-15T08:08:10;1.60;99.90
24262;DHT22;12385;51.412;5.540;2023-02-15T08:13:45;1.70;99.90
24262;DHT22;12385;51.412;5.540;2023-02-15T08:18:47;1.80;99.90
24262;DHT22;12385;51.412;5.540;2023-02-15T08:21:13;1.90;99.90
24262;DHT22;12385;51.412;5.540;2023-02-15T08:23:38;1.90;99.90
24262;DHT22;12385;51.412;5.540;2023-02-15T08:26:04;1.90;99.90
24262;DHT22;12385;51.412;5.540;2023-02-15T08:28:30;2.00;99.90
24262;DHT22;12385;51.412;5.540;2023-02-15T08:31:03;2.10;99.90
24262;DHT22;12385;51.412;5.540;2023-02-15T08:33:29;2.10;99.90
24262;DHT22;12385;51.412;5.540;2023-02-15T08:35:54;2.20;99.90
24262;DHT22;12385;51.412;5.540;2023-02-15T08:38:20;2.20;99.90
24262;DHT22;12385;51.412;5.540;2023-02-15T08:40:45;2.30;99.90
24262;DHT22;12385;51.412;5.540;2023-02-15T08:43:11;2.40;99.90
24262;DHT22;12385;51.412;5.540;2023-02-15T08:45:36;2.40;99.90
24262;DHT22;12385;51.412;5.540;2023-02-15T08:48:02;2.50;99.90
24262;DHT22;12385;51.412;5.540;2023-02-15T08:50:27;2.60;99.90
24262;DHT22;12385;51.412;5.540;2023-02-15T08:52:53;2.70;99.90
24262;DHT22;12385;51.412;5.540;2023-02-15T08:55:18;2.70;99.90
24262;DHT22;12385;51.412;5.540;2023-02-15T08:57:44;2.80;99.90
24262;DHT22;12385;51.412;5.540;2023-02-15T09:00:10;2.80;99.90
24262;DHT22;12385;51.412;5.540;2023-02-15T09:02:37;2.90;99.90
24262;DHT22;12385;51.412;5.540;2023-02-15T09:05:02;2.90;99.90
24262;DHT22;12385;51.412;5.540;2023-02-15T09:07:28;3.00;99.90
24262;DHT22;12385;51.412;5.540;2023-02-15T09:09:54;3.10;99.90
24262;DHT22;12385;51.412;5.540;2023-02-15T09:12:20;3.10;99.90
24262;DHT22;12385;51.412;5.540;2023-02-15T09:14:45;3.10;99.90
24262;DHT22;12385;51.412;5.540;2023-02-15T09:17:11;3.20;99.90
24262;DHT22;12385;51.412;5.540;2023-02-15T09:19:36;3.30;99.90
24262;DHT22;12385;51.412;5.540;2023-02-15T09:22:02;3.30;99.90
24262;DHT22;12385;51.412;5.540;2023-02-15T09:24:27;3.40;99.90
24262;DHT22;12385;51.412;5.540;2023-02-15T09:26:56;3.50;99.90
24262;DHT22;12385;51.412;5.540;2023-02-15T09:29:22;3.50;99.90
24262;DHT22;12385;51.412;5.540;2023-02-15T09:31:49;3.50;99.90
24262;DHT22;12385;51.412;5.540;2023-02-15T09:34:16;3.60;99.90
24262;DHT22;12385;51.412;5.540;2023-02-15T09:36:42;3.60;99.90
24262;DHT22;12385;51.412;5.540;2023-02-15T09:39:18;3.70;99.90
24262;DHT22;12385;51.412;5.540;2023-02-15T09:44:52;3.80;99.90
24262;DHT22;12385;51.412;5.540;2023-02-15T09:47:31;3.90;99.90
24262;DHT22;12385;51.412;5.540;2023-02-15T09:52:30;4.00;99.90
24262;DHT22;12385;51.412;5.540;2023-02-15T10:00:00;4.30;99.90
24262;DHT22;12385;51.412;5.540;2023-02-15T10:05:34;4.60;99.90
24262;DHT22;12385;51.412;5.540;2023-02-15T10:15:53;5.10;99.90
24262;DHT22;12385;51.412;5.540;2023-02-15T10:28:46;5.50;99.90
24262;DHT22;12385;51.412;5.540;2023-02-15T10:31:23;5.60;99.90
24262;DHT22;12385;51.412;5.540;2023-02-15T10:41:38;6.10;99.90
24262;DHT22;12385;51.412;5.540;2023-02-15T10:46:37;6.40;99.90
24262;DHT22;12385;51.412;5.540;2023-02-15T11:08:03;7.30;99.90
24262;DHT22;12385;51.412;5.540;2023-02-15T11:10:39;7.40;99.90
24262;DHT22;12385;51.412;5.540;2023-02-15T11:13:08;7.50;99.90
24262;DHT22;12385;51.412;5.540;2023-02-15T11:18:11;7.90;99.90
24262;DHT22;12385;51.412;5.540;2023-02-15T11:20:42;8.20;99.90
24262;DHT22;12385;51.412;5.540;2023-02-15T11:23:12;8.30;99.90
24262;DHT22;12385;51.412;5.540;2023-02-15T11:25:40;8.40;99.90
24262;DHT22;12385;51.412;5.540;2023-02-15T11:28:10;8.50;99.90
24262;DHT22;12385;51.412;5.540;2023-02-15T11:30:42;8.60;99.90
24262;DHT22;12385;51.412;5.540;2023-02-15T11:33:26;8.70;99.90
24262;DHT22;12385;51.412;5.540;2023-02-15T11:36:00;8.80;99.90
24262;DHT22;12385;51.412;5.540;2023-02-15T11:38:31;8.90;99.90
24262;DHT22;12385;51.412;5.540;2023-02-15T11:41:02;9.00;99.90
24262;DHT22;12385;51.412;5.540;2023-02-15T11:46:13;9.10;99.90
24262;DHT22;12385;51.412;5.540;2023-02-15T11:48:40;9.20;99.90
24262;DHT22;12385;51.412;5.540;2023-02-15T11:51:08;9.30;99.90
24262;DHT22;12385;51.412;5.540;2023-02-15T11:53:37;9.40;99.90
24262;DHT22;12385;51.412;5.540;2023-02-15T11:56:03;9.50;99.90
24262;DHT22;12385;51.412;5.540;2023-02-15T12:06:15;9.80;99.90
24262;DHT22;12385;51.412;5.540;2023-02-15T12:08:42;10.00;99.90
24262;DHT22;12385;51.412;5.540;2023-02-15T12:11:12;10.10;99.90
24262;DHT22;12385;51.412;5.540;2023-02-15T12:13:53;10.10;99.90
24262;DHT22;12385;51.412;5.540;2023-02-15T12:16:19;10.30;99.90
24262;DHT22;12385;51.412;5.540;2023-02-15T12:18:45;10.30;99.90
24262;DHT22;12385;51.412;5.540;2023-02-15T12:21:23;10.50;99.90
24262;DHT22;12385;51.412;5.540;2023-02-15T12:23:54;10.70;99.90
24262;DHT22;12385;51.412;5.540;2023-02-15T12:26:24;10.80;99.90
24262;DHT22;12385;51.412;5.540;2023-02-15T12:28:51;11.00;99.90
24262;DHT22;12385;51.412;5.540;2023-02-15T12:31:24;11.10;99.90
24262;DHT22;12385;51.412;5.540;2023-02-15T12:33:54;11.10;99.90
24262;DHT22;12385;51.412;5.540;2023-02-15T12:36:21;11.20;99.90
24262;DHT22;12385;51.412;5.540;2023-02-15T12:41:32;11.50;99.90
24262;DHT22;12385;51.412;5.540;2023-02-15T12:44:16;11.50;99.90
24262;DHT22;12385;51.412;5.540;2023-02-15T12:46:55;11.60;99.90
24262;DHT22;12385;51.412;5.540;2023-02-15T12:49:21;11.70;99.90
24262;DHT22;12385;51.412;5.540;2023-02-15T12:56:49;12.00;99.90
24262;DHT22;12385;51.412;5.540;2023-02-15T12:59:15;12.10;99.90
24262;DHT22;12385;51.412;5.540;2023-02-15T13:01:41;12.20;99.90
24262;DHT22;12385;51.412;5.540;2023-02-15T13:04:15;12.30;99.90
24262;DHT22;12385;51.412;5.540;2023-02-15T13:06:46;12.30;99.90
24262;DHT22;12385;51.412;5.540;2023-02-15T13:09:14;12.30;99.90
24262;DHT22;12385;51.412;5.540;2023-02-15T13:11:41;12.40;99.90
24262;DHT22;12385;51.412;5.540;2023-02-15T13:14:17;12.50;99.90
24262;DHT22;12385;51.412;5.540;2023-02-15T13:16:44;12.60;99.90
24262;DHT22;12385;51.412;5.540;2023-02-15T13:19:17;12.70;99.90
24262;DHT22;12385;51.412;5.540;2023-02-15T13:21:44;12.70;99.90
24262;DHT22;12385;51.412;5.540;2023-02-15T13:26:56;12.80;99.90
24262;DHT22;12385;51.412;5.540;2023-02-15T13:29:23;12.90;99.90
24262;DHT22;12385;51.412;5.540;2023-02-15T13:31:50;12.90;99.90
24262;DHT22;12385;51.412;5.540;2023-02-15T13:34:25;12.90;99.90
24262;DHT22;12385;51.412;5.540;2023-02-15T13:41:49;13.00;99.90
24262;DHT22;12385;51.412;5.540;2023-02-15T13:47:00;13.20;99.90
24262;DHT22;12385;51.412;5.540;2023-02-15T13:57:28;13.80;99.90
24262;DHT22;12385;51.412;5.540;2023-02-15T14:00:04;13.90;99.90
24262;DHT22;12385;51.412;5.540;2023-02-15T14:25:54;13.70;99.90
24262;DHT22;12385;51.412;5.540;2023-02-15T14:28:28;13.60;99.90
24262;DHT22;12385;51.412;5.540;2023-02-15T14:30:56;13.60;99.90
24262;DHT22;12385;51.412;5.540;2023-02-15T14:35:55;13.50;99.90
24262;DHT22;12385;51.412;5.540;2023-02-15T14:41:15;13.40;99.90
24262;DHT22;12385;51.412;5.540;2023-02-15T14:43:59;13.30;99.90
24262;DHT22;12385;51.412;5.540;2023-02-15T14:46:44;13.30;99.90
24262;DHT22;12385;51.412;5.540;2023-02-15T14:49:12;13.20;99.90
24262;DHT22;12385;51.412;5.540;2023-02-15T14:54:04;13.30;99.90
24262;DHT22;12385;51.412;5.540;2023-02-15T14:56:31;13.30;99.90
24262;DHT22;12385;51.412;5.540;2023-02-15T14:59:16;13.30;99.90
24262;DHT22;12385;51.412;5.540;2023-02-15T15:01:50;13.30;99.90
24262;DHT22;12385;51.412;5.540;2023-02-15T15:07:02;13.30;99.90
24262;DHT22;12385;51.412;5.540;2023-02-15T15:09:29;13.20;99.90
24262;DHT22;12385;51.412;5.540;2023-02-15T15:12:03;13.20;99.90
24262;DHT22;12385;51.412;5.540;2023-02-15T15:14:39;13.20;99.90
24262;DHT22;12385;51.412;5.540;2023-02-15T15:17:05;13.10;99.90
24262;DHT22;12385;51.412;5.540;2023-02-15T15:22:18;13.00;99.90
24262;DHT22;12385;51.412;5.540;2023-02-15T15:29:54;12.80;99.90
24262;DHT22;12385;51.412;5.540;2023-02-15T15:32:21;12.80;99.90
24262;DHT22;12385;51.412;5.540;2023-02-15T15:39:56;12.50;99.90
24262;DHT22;12385;51.412;5.540;2023-02-15T15:50:19;12.30;99.90
24262;DHT22;12385;51.412;5.540;2023-02-15T15:52:46;12.30;99.90
24262;DHT22;12385;51.412;5.540;2023-02-15T15:55:31;12.20;99.90
24262;DHT22;12385;51.412;5.540;2023-02-15T15:58:06;12.10;99.90
24262;DHT22;12385;51.412;5.540;2023-02-15T16:00:43;12.00;99.90
24262;DHT22;12385;51.412;5.540;2023-02-15T16:03:14;12.00;99.90
24262;DHT22;12385;51.412;5.540;2023-02-15T16:05:40;11.90;99.90
24262;DHT22;12385;51.412;5.540;2023-02-15T16:08:06;11.90;99.90
24262;DHT22;12385;51.412;5.540;2023-02-15T16:10:31;11.90;99.90
24262;DHT22;12385;51.412;5.540;2023-02-15T16:13:00;11.90;99.90
24262;DHT22;12385;51.412;5.540;2023-02-15T16:15:33;11.90;99.90
24262;DHT22;12385;51.412;5.540;2023-02-15T16:17:59;11.80;99.90
24262;DHT22;12385;51.412;5.540;2023-02-15T16:20:35;11.80;99.90
24262;DHT22;12385;51.412;5.540;2023-02-15T16:28:48;11.60;99.90
24262;DHT22;12385;51.412;5.540;2023-02-15T16:31:15;11.50;99.90
24262;DHT22;12385;51.412;5.540;2023-02-15T16:33:42;11.40;99.90
24262;DHT22;12385;51.412;5.540;2023-02-15T16:36:24;11.40;99.90
24262;DHT22;12385;51.412;5.540;2023-02-15T16:41:15;11.30;99.90
24262;DHT22;12385;51.412;5.540;2023-02-15T16:43:43;11.20;99.90
24262;DHT22;12385;51.412;5.540;2023-02-15T16:46:12;11.20;99.90
24262;DHT22;12385;51.412;5.540;2023-02-15T16:48:41;11.10;99.90
24262;DHT22;12385;51.412;5.540;2023-02-15T16:51:08;11.00;99.90
24262;DHT22;12385;51.412;5.540;2023-02-15T16:53:34;11.00;99.90
24262;DHT22;12385;51.412;5.540;2023-02-15T16:56:01;10.90;99.90
24262;DHT22;12385;51.412;5.540;2023-02-15T16:58:37;10.80;99.90
24262;DHT22;12385;51.412;5.540;2023-02-15T17:01:06;10.80;99.90
24262;DHT22;12385;51.412;5.540;2023-02-15T17:03:32;10.80;99.90
24262;DHT22;12385;51.412;5.540;2023-02-15T17:05:58;10.70;99.90
24262;DHT22;12385;51.412;5.540;2023-02-15T17:08:26;10.70;99.90
24262;DHT22;12385;51.412;5.540;2023-02-15T17:13:24;10.60;99.90
24262;DHT22;12385;51.412;5.540;2023-02-15T17:18:34;10.50;99.90
24262;DHT22;12385;51.412;5.540;2023-02-15T17:21:10;10.40;99.90
24262;DHT22;12385;51.412;5.540;2023-02-15T17:23:44;10.30;99.90
24262;DHT22;12385;51.412;5.540;2023-02-15T17:26:11;10.30;99.90
24262;DHT22;12385;51.412;5.540;2023-02-15T17:28:44;10.20;99.90
24262;DHT22;12385;51.412;5.540;2023-02-15T17:31:12;10.20;99.90
24262;DHT22;12385;51.412;5.540;2023-02-15T17:33:39;10.10;99.90
24262;DHT22;12385;51.412;5.540;2023-02-15T17:38:39;10.00;99.90
24262;DHT22;12385;51.412;5.540;2023-02-15T17:41:05;10.00;99.90
24262;DHT22;12385;51.412;5.540;2023-02-15T17:43:31;10.00;99.90
24262;DHT22;12385;51.412;5.540;2023-02-15T17:45:56;9.90;99.90
24262;DHT22;12385;51.412;5.540;2023-02-15T17:50:49;9.90;99.90
24262;DHT22;12385;51.412;5.540;2023-02-15T17:53:15;9.80;99.90
24262;DHT22;12385;51.412;5.540;2023-02-15T17:55:42;9.80;99.90
24262;DHT22;12385;51.412;5.540;2023-02-15T17:58:11;9.80;99.90
24262;DHT22;12385;51.412;5.540;2023-02-15T18:00:41;9.80;99.90
24262;DHT22;12385;51.412;5.540;2023-02-15T18:03:28;9.70;99.90
24262;DHT22;12385;51.412;5.540;2023-02-15T18:06:13;9.70;99.90
24262;DHT22;12385;51.412;5.540;2023-02-15T18:08:57;9.60;99.90
24262;DHT22;12385;51.412;5.540;2023-02-15T18:11:41;9.60;99.90
24262;DHT22;12385;51.412;5.540;2023-02-15T18:14:12;9.50;99.90
24262;DHT22;12385;51.412;5.540;2023-02-15T18:16:39;9.50;99.90
24262;DHT22;12385;51.412;5.540;2023-02-15T18:19:12;9.50;99.90
24262;DHT22;12385;51.412;5.540;2023-02-15T18:21:39;9.50;99.90
24262;DHT22;12385;51.412;5.540;2023-02-15T18:24:04;9.40;99.90
24262;DHT22;12385;51.412;5.540;2023-02-15T18:26:30;9.40;99.90
24262;DHT22;12385;51.412;5.540;2023-02-15T18:28:55;9.40;99.90
24262;DHT22;12385;51.412;5.540;2023-02-15T18:31:20;9.40;99.90
24262;DHT22;12385;51.412;5.540;2023-02-15T18:33:47;9.30;99.90
24262;DHT22;12385;51.412;5.540;2023-02-15T18:36:36;9.30;99.90
24262;DHT22;12385;51.412;5.540;2023-02-15T18:39:00;9.30;99.90
24262;DHT22;12385;51.412;5.540;2023-02-15T18:41:27;9.20;99.90
24262;DHT22;12385;51.412;5.540;2023-02-15T18:43:53;9.10;99.90
24262;DHT22;12385;51.412;5.540;2023-02-15T18:46:19;9.10;99.90
24262;DHT22;12385;51.412;5.540;2023-02-15T18:48:45;9.00;99.90
24262;DHT22;12385;51.412;5.540;2023-02-15T18:51:15;8.90;99.90
24262;DHT22;12385;51.412;5.540;2023-02-15T18:53:41;8.90;99.90
24262;DHT22;12385;51.412;5.540;2023-02-15T18:56:09;8.80;99.90
24262;DHT22;12385;51.412;5.540;2023-02-15T18:58:36;8.80;99.90
24262;DHT22;12385;51.412;5.540;2023-02-15T19:01:02;8.70;99.90
24262;DHT22;12385;51.412;5.540;2023-02-15T19:03:29;8.70;99.90
24262;DHT22;12385;51.412;5.540;2023-02-15T19:05:54;8.70;99.90
24262;DHT22;12385;51.412;5.540;2023-02-15T19:08:21;8.70;99.90
24262;DHT22;12385;51.412;5.540;2023-02-15T19:10:49;8.60;99.90
24262;DHT22;12385;51.412;5.540;2023-02-15T19:13:14;8.60;99.90
24262;DHT22;12385;51.412;5.540;2023-02-15T19:15:43;8.60;99.90